Time;durP1;ratioP1;P1;durP2;ratioP2;P2;SDS_P1;SDS_P2;PMS_P1;PMS_P2;Temp;Humidity;BMP_temperature;BMP_pressure;BME280_temperature;BME280_humidity;BME280_pressure;Samples;Min_cycle;Max_cycle;Signal;HPM_P1;HPM_P2
2023/04/01 00:00:29;;;;;;;5.13;0.93;;;11.10;58.70;;;;;;20737;6839;117200;-74
2023/04/01 00:02:55;;;;;;;1.87;1.20;;;11.00;59.20;;;;;;20505;6839;338485;-75
2023/04/01 00:05:20;;;;;;;2.70;1.20;;;11.20;58.60;;;;;;20520;6839;292639;-74
2023/04/01 00:07:46;;;;;;;1.73;0.93;;;11.50;57.10;;;;;;20743;6836;118874;-75
2023/04/01 00:10:12;;;;;;;2.47;1.00;;;11.20;57.80;;;;;;20737;6839;117178;-74
2023/04/01 00:12:37;;;;;;;2.73;0.90;;;11.20;57.80;;;;;;20500;6839;308904;-74
2023/04/01 00:15:03;;;;;;;2.35;1.08;;;11.40;57.10;;;;;;20522;6839;308342;-74
2023/04/01 00:17:29;;;;;;;1.40;0.97;;;11.70;56.30;;;;;;20728;6839;117551;-74
2023/04/01 00:19:54;;;;;;;1.92;0.88;;;11.60;56.50;;;;;;20527;6839;278705;-74
2023/04/01 00:22:20;;;;;;;1.70;0.98;;;11.70;56.00;;;;;;20520;6839;331156;-74
2023/04/01 00:24:46;;;;;;;1.75;0.90;;;11.90;55.30;;;;;;20705;6839;118017;-74
2023/04/01 00:27:11;;;;;;;3.50;0.95;;;11.80;55.70;;;;;;20532;6837;341967;-74
2023/04/01 00:29:37;;;;;;;1.37;0.80;;;11.80;55.50;;;;;;20751;6838;117072;-74
2023/04/01 00:32:02;;;;;;;1.08;0.60;;;11.70;55.90;;;;;;20752;6838;123355;-74
2023/04/01 00:34:28;;;;;;;1.10;0.63;;;11.40;56.60;;;;;;20742;6839;123052;-74
2023/04/01 00:36:56;;;;;;;1.17;0.87;;;11.10;57.30;;;;;;20508;6839;311814;-71
2023/04/01 00:39:21;;;;;;;0.57;0.47;;;11.20;56.60;;;;;;20738;6839;118869;-74
2023/04/01 00:41:48;;;;;;;0.97;0.83;;;11.20;56.80;;;;;;20740;6835;117688;-73
2023/04/01 00:44:20;;;;;;;1.43;0.67;;;11.00;57.50;;;;;;20527;6839;307621;-76
2023/04/01 00:46:46;;;;;;;1.48;0.73;;;11.20;57.40;;;;;;20487;6839;308743;-73
2023/04/01 00:49:12;;;;;;;1.17;0.70;;;11.50;56.40;;;;;;20700;6837;117397;-73
2023/04/01 00:51:39;;;;;;;1.53;0.47;;;11.50;56.30;;;;;;20733;6837;120896;-73
2023/04/01 00:54:05;;;;;;;1.40;0.80;;;11.30;56.90;;;;;;20534;6837;278386;-74
2023/04/01 00:56:33;;;;;;;2.45;0.90;;;11.30;56.60;;;;;;20528;6837;308274;-73
2023/04/01 00:59:00;;;;;;;1.77;0.90;;;11.50;56.10;;;;;;20733;6837;117356;-74
2023/04/01 01:01:25;;;;;;;2.03;0.90;;;11.50;56.10;;;;;;20739;6837;116208;-73
2023/04/01 01:03:53;;;;;;;1.87;0.80;;;11.00;57.40;;;;;;20733;6837;117702;-73
2023/04/01 01:06:52;;;;;;;1.43;0.90;;;11.00;57.30;;;;;;20526;6837;312964;-74
2023/04/01 01:09:24;;;;;;;1.43;0.90;;;11.50;55.50;;;;;;20532;6835;278295;-75
2023/04/01 01:11:50;;;;;;;3.07;0.80;;;11.40;55.40;;;;;;20539;6837;306454;-75
2023/04/01 01:14:35;;;;;;;1.27;0.50;;;11.70;54.70;;;;;;20722;6837;118687;-75
2023/04/01 01:17:09;;;;;;;2.00;0.50;;;11.60;55.30;;;;;;20751;6837;123238;-75
2023/04/01 01:20:11;;;;;;;1.67;0.90;;;11.30;56.30;;;;;;20491;6837;308234;-75
2023/04/01 01:22:53;;;;;;;1.20;0.57;;;11.30;56.30;;;;;;20722;6837;118179;-76
2023/04/01 01:25:28;;;;;;;1.00;0.60;;;11.20;56.50;;;;;;20740;6837;117228;-74
2023/04/01 01:28:13;;;;;;;2.20;0.80;;;10.90;57.20;;;;;;20529;6837;312386;-75
2023/04/01 01:30:59;;;;;;;1.40;0.53;;;11.10;56.60;;;;;;20719;6837;144594;-75
2023/04/01 01:33:31;;;;;;;1.48;0.70;;;11.00;56.80;;;;;;20075;6837;282305;-75
2023/04/01 01:35:56;;;;;;;1.17;0.60;;;11.10;56.20;;;;;;20728;6837;117435;-75
2023/04/01 01:38:22;;;;;;;2.47;0.70;;;11.10;56.50;;;;;;20541;6835;278367;-75
2023/04/01 01:40:50;;;;;;;1.63;0.60;;;11.20;56.10;;;;;;20506;6837;341263;-75
2023/04/01 01:43:14;;;;;;;1.90;0.70;;;11.40;55.40;;;;;;20533;6837;279800;-75
2023/04/01 01:45:40;;;;;;;1.30;0.70;;;11.70;55.00;;;;;;20514;6837;278826;-75
2023/04/01 01:48:05;;;;;;;1.35;0.60;;;11.90;54.40;;;;;;20518;6837;300443;-75
2023/04/01 01:50:31;;;;;;;1.23;0.50;;;12.00;53.80;;;;;;20737;6837;117624;-77
2023/04/01 01:53:04;;;;;;;0.80;0.60;;;11.80;54.50;;;;;;20744;6837;117364;-74
2023/04/01 01:55:32;;;;;;;0.60;0.50;;;11.40;55.40;;;;;;20726;6837;118024;-76
2023/04/01 01:57:57;;;;;;;0.80;0.47;;;11.10;56.20;;;;;;20501;6837;308453;-76
2023/04/01 02:00:23;;;;;;;0.90;0.50;;;11.20;55.90;;;;;;20747;6837;123065;-76
2023/04/01 02:02:49;;;;;;;0.55;0.30;;;11.10;56.10;;;;;;20733;6837;152770;-75
2023/04/01 02:05:16;;;;;;;0.50;0.40;;;10.80;57.60;;;;;;20750;6837;117294;-75
2023/04/01 02:07:41;;;;;;;0.50;0.20;;;10.80;57.50;;;;;;20715;6837;117454;-76
2023/04/01 02:10:08;;;;;;;1.00;0.40;;;10.70;58.10;;;;;;20527;6837;279358;-76
2023/04/01 02:12:33;;;;;;;0.83;0.40;;;10.90;56.50;;;;;;20724;6837;123887;-76
2023/04/01 02:15:08;;;;;;;0.80;0.40;;;10.90;56.60;;;;;;20537;6837;308977;-76
2023/04/01 02:17:35;;;;;;;0.93;0.40;;;11.10;55.50;;;;;;20498;6837;312780;-76
2023/04/01 02:20:04;;;;;;;0.30;0.30;;;11.40;54.50;;;;;;20734;6837;117428;-76
2023/04/01 02:22:35;;;;;;;0.53;0.40;;;11.10;55.80;;;;;;20611;6837;117536;-76
2023/04/01 02:25:01;;;;;;;0.53;0.20;;;11.10;56.40;;;;;;20749;6837;117586;-76
2023/04/01 02:27:26;;;;;;;0.30;0.30;;;10.80;56.40;;;;;;20738;6837;117200;-76
2023/04/01 02:29:52;;;;;;;0.60;0.40;;;10.70;57.00;;;;;;20543;6837;311877;-76
2023/04/01 02:32:17;;;;;;;1.23;0.30;;;10.80;55.90;;;;;;20753;6837;117531;-75
2023/04/01 02:34:43;;;;;;;0.30;0.27;;;10.90;56.10;;;;;;20520;6837;278386;-75
2023/04/01 02:37:08;;;;;;;0.25;0.20;;;11.10;55.30;;;;;;20542;6837;308084;-75
2023/04/01 02:39:34;;;;;;;1.36;0.30;;;11.30;54.60;;;;;;20530;6837;337442;-75
2023/04/01 02:42:00;;;;;;;0.40;0.20;;;11.60;53.90;;;;;;20744;6837;117141;-75
2023/04/01 02:44:25;;;;;;;0.35;0.35;;;11.40;54.30;;;;;;20743;6837;117394;-76
2023/04/01 02:46:51;;;;;;;1.10;0.43;;;11.20;55.10;;;;;;20729;6837;119741;-74
2023/04/01 02:49:16;;;;;;;0.43;0.22;;;10.90;55.90;;;;;;20533;6836;336672;-74
2023/04/01 02:51:42;;;;;;;0.40;0.30;;;11.00;55.20;;;;;;20752;6836;123166;-74
2023/04/01 02:54:07;;;;;;;0.32;0.17;;;11.00;55.50;;;;;;20759;6837;117113;-76
2023/04/01 02:56:33;;;;;;;0.50;0.30;;;10.80;56.00;;;;;;20526;6837;307066;-75
2023/04/01 02:58:59;;;;;;;0.30;0.30;;;10.90;55.20;;;;;;20753;6837;118342;-74
2023/04/01 03:01:24;;;;;;;0.35;0.32;;;10.80;55.40;;;;;;20749;6837;117076;-74
2023/04/01 03:03:50;;;;;;;0.53;0.30;;;10.60;55.90;;;;;;20745;6837;117946;-80
2023/04/01 03:06:15;;;;;;;0.37;0.20;;;10.30;56.70;;;;;;20530;6837;333248;-75
2023/04/01 03:08:41;;;;;;;1.00;0.10;;;10.50;56.10;;;;;;20724;6837;117668;-76
2023/04/01 03:11:06;;;;;;;0.30;0.20;;;10.50;56.10;;;;;;20532;6837;342114;-74
2023/04/01 03:13:32;;;;;;;0.80;0.37;;;10.60;55.50;;;;;;20529;6837;307991;-76
2023/04/01 03:15:59;;;;;;;0.30;0.30;;;10.90;54.70;;;;;;20740;6837;120884;-78
2023/04/01 03:18:24;;;;;;;0.70;0.20;;;10.80;55.10;;;;;;20542;6837;278885;-74
2023/04/01 03:20:50;;;;;;;0.20;0.20;;;10.80;54.60;;;;;;20739;6837;117175;-74
2023/04/01 03:23:17;;;;;;;0.10;0.10;;;10.70;54.90;;;;;;20752;6837;117277;-74
2023/04/01 03:25:41;;;;;;;0.20;0.20;;;10.40;55.50;;;;;;20745;6837;118113;-74
2023/04/01 03:28:06;;;;;;;0.10;0.10;;;10.20;56.20;;;;;;20745;6837;117172;-74
2023/04/01 03:30:33;;;;;;;0.37;0.20;;;10.20;56.10;;;;;;20509;6837;307937;-75
2023/04/01 03:32:59;;;;;;;0.20;0.20;;;10.20;56.10;;;;;;20749;6837;121384;-75
2023/04/01 03:35:25;;;;;;;0.10;0.10;;;10.10;57.30;;;;;;20733;6837;123520;-74
2023/04/01 03:37:50;;;;;;;1.40;0.10;;;10.00;56.70;;;;;;20531;6837;307607;-75
2023/04/01 03:40:17;;;;;;;0.30;0.10;;;10.20;55.90;;;;;;20737;6837;117982;-75
2023/04/01 03:42:43;;;;;;;2.20;0.37;;;10.20;55.90;;;;;;20724;6837;117770;-74
2023/04/01 03:45:09;;;;;;;0.45;0.22;;;10.00;56.30;;;;;;20535;6837;283878;-74
2023/04/01 03:47:34;;;;;;;0.70;0.20;;;10.20;55.80;;;;;;20540;6837;278392;-74
2023/04/01 03:49:59;;;;;;;0.75;0.30;;;10.50;54.70;;;;;;20534;6837;342145;-75
2023/04/01 03:52:25;;;;;;;1.10;0.20;;;10.70;53.70;;;;;;20532;6837;278026;-75
2023/04/01 03:54:51;;;;;;;0.30;0.30;;;10.90;53.20;;;;;;20729;6837;186453;-74
2023/04/01 03:57:16;;;;;;;0.37;0.30;;;10.70;53.60;;;;;;20534;6837;281965;-74
2023/04/01 03:59:42;;;;;;;1.00;0.30;;;10.60;53.50;;;;;;20530;6837;312487;-74
2023/04/01 04:02:07;;;;;;;0.20;0.20;;;10.80;53.10;;;;;;20546;6835;307667;-75
2023/04/01 04:04:33;;;;;;;0.30;0.30;;;10.90;52.70;;;;;;20738;6837;117476;-74
2023/04/01 04:07:00;;;;;;;0.20;0.10;;;10.70;53.30;;;;;;20539;6837;307573;-75
2023/04/01 04:09:25;;;;;;;1.27;0.30;;;10.70;53.40;;;;;;20748;6837;117175;-75
2023/04/01 04:11:52;;;;;;;0.75;0.37;;;10.50;53.80;;;;;;20535;6837;308146;-74
2023/04/01 04:14:17;;;;;;;0.17;0.17;;;10.50;53.70;;;;;;20739;6837;117122;-75
2023/04/01 04:16:44;;;;;;;0.10;0.10;;;10.40;53.60;;;;;;20518;6837;307832;-76
2023/04/01 04:19:09;;;;;;;1.17;0.30;;;10.40;54.10;;;;;;20730;6837;117238;-75
2023/04/01 04:21:35;;;;;;;0.40;0.30;;;10.30;54.30;;;;;;20534;6837;282811;-74
2023/04/01 04:24:00;;;;;;;0.43;0.40;;;10.40;54.10;;;;;;20532;6837;307998;-75
2023/04/01 04:26:26;;;;;;;0.62;0.22;;;10.60;53.70;;;;;;20745;6837;117726;-75
2023/04/01 04:28:51;;;;;;;0.67;0.40;;;10.40;54.00;;;;;;20725;6837;121696;-74
2023/04/01 04:31:20;;;;;;;1.50;0.40;;;10.10;54.90;;;;;;20531;6837;337411;-74
2023/04/01 04:33:46;;;;;;;0.47;0.30;;;10.00;55.20;;;;;;20747;6837;121656;-74
2023/04/01 04:36:12;;;;;;;0.70;0.45;;;10.00;55.20;;;;;;20533;6837;345002;-75
2023/04/01 04:38:37;;;;;;;0.95;0.43;;;10.10;54.90;;;;;;20515;6837;337582;-74
2023/04/01 04:41:03;;;;;;;1.45;0.45;;;10.40;54.50;;;;;;20750;6837;117492;-75
2023/04/01 04:43:30;;;;;;;0.40;0.40;;;10.30;55.00;;;;;;20743;6837;117074;-74
2023/04/01 04:45:56;;;;;;;0.77;0.40;;;9.70;57.70;;;;;;20744;6837;117243;-75
2023/04/01 04:48:22;;;;;;;2.23;0.60;;;9.70;57.70;;;;;;20741;6837;117789;-76
2023/04/01 04:50:48;;;;;;;1.62;0.68;;;9.60;59.30;;;;;;20503;6837;309081;-75
2023/04/01 04:53:14;;;;;;;0.70;0.57;;;10.20;56.80;;;;;;20516;6834;324253;-75
2023/04/01 04:55:44;;;;;;;0.77;0.53;;;10.10;56.20;;;;;;20734;6837;123402;-75
2023/04/01 04:58:10;;;;;;;0.70;0.50;;;10.10;56.20;;;;;;20736;6837;118715;-75
2023/04/01 05:00:35;;;;;;;0.80;0.50;;;10.00;56.90;;;;;;20724;6837;117761;-74
2023/04/01 05:03:02;;;;;;;0.50;0.50;;;9.80;59.20;;;;;;20749;6837;117441;-75
2023/04/01 05:05:27;;;;;;;0.67;0.37;;;9.70;59.10;;;;;;20748;6837;117061;-75
2023/04/01 05:07:53;;;;;;;0.70;0.45;;;9.60;59.60;;;;;;20752;6837;123091;-75
2023/04/01 05:10:20;;;;;;;1.60;0.63;;;9.50;60.00;;;;;;20746;6837;116993;-75
2023/04/01 05:12:44;;;;;;;1.75;0.80;;;9.50;60.30;;;;;;20505;6836;278271;-76
2023/04/01 05:15:10;;;;;;;0.73;0.70;;;9.80;59.40;;;;;;20743;6837;117087;-75
2023/04/01 05:17:36;;;;;;;1.43;0.60;;;9.80;59.50;;;;;;20736;6837;117080;-76
2023/04/01 05:20:02;;;;;;;2.03;0.70;;;9.80;59.50;;;;;;20743;6837;117328;-74
2023/04/01 05:22:27;;;;;;;1.42;0.70;;;9.70;59.90;;;;;;20532;6837;308246;-74
2023/04/01 05:24:53;;;;;;;1.55;0.70;;;10.00;57.90;;;;;;20726;6837;117834;-77
2023/04/01 05:27:18;;;;;;;0.97;0.63;;;10.10;57.90;;;;;;20743;6837;117746;-75
2023/04/01 05:29:44;;;;;;;1.05;0.65;;;10.00;58.80;;;;;;20741;6837;117152;-74
2023/04/01 05:32:09;;;;;;;1.15;0.55;;;9.90;59.60;;;;;;20746;6837;117662;-75
2023/04/01 05:34:35;;;;;;;1.80;0.60;;;9.90;60.10;;;;;;20722;6837;117366;-74
2023/04/01 05:37:01;;;;;;;0.90;0.50;;;10.10;57.50;;;;;;20525;6837;309926;-73
2023/04/01 05:39:27;;;;;;;1.10;0.43;;;10.10;57.50;;;;;;20535;6837;305807;-74
2023/04/01 05:41:52;;;;;;;1.27;0.50;;;10.50;55.80;;;;;;20536;6837;278940;-72
2023/04/01 05:44:18;;;;;;;0.80;0.40;;;10.90;54.60;;;;;;20528;6837;337696;-72
2023/04/01 05:46:43;;;;;;;0.70;0.40;;;11.20;53.80;;;;;;20724;6837;117237;-72
2023/04/01 05:49:09;;;;;;;0.45;0.40;;;11.10;54.80;;;;;;20747;6837;117789;-72
2023/04/01 05:51:35;;;;;;;0.57;0.37;;;10.90;55.00;;;;;;20535;6837;336685;-71
2023/04/01 05:54:00;;;;;;;0.30;0.30;;;11.00;53.70;;;;;;20739;6837;117238;-71
2023/04/01 05:56:27;;;;;;;0.67;0.27;;;10.90;54.10;;;;;;20742;6837;117016;-73
2023/04/01 05:58:52;;;;;;;0.40;0.40;;;10.70;54.70;;;;;;20510;6835;303945;-72
2023/04/01 06:01:18;;;;;;;0.33;0.30;;;10.90;53.60;;;;;;20743;6837;123708;-72
2023/04/01 06:03:44;;;;;;;0.20;0.20;;;10.80;53.90;;;;;;20741;6837;119807;-72
2023/04/01 06:06:16;;;;;;;0.32;0.30;;;10.70;54.70;;;;;;20740;6837;117185;-73
2023/04/01 06:08:41;;;;;;;0.57;0.40;;;10.60;55.50;;;;;;20702;6837;122875;-75
2023/04/01 06:11:17;;;;;;;0.28;0.28;;;10.60;56.20;;;;;;20743;6837;117951;-77
2023/04/01 06:13:52;;;;;;;0.33;0.30;;;10.60;56.80;;;;;;20740;6837;117963;-76
2023/04/01 06:16:27;;;;;;;0.60;0.40;;;10.70;57.20;;;;;;20516;6837;277714;-77
2023/04/01 06:19:16;;;;;;;0.70;0.40;;;11.10;54.50;;;;;;20489;6837;282556;-73
2023/04/01 06:22:02;;;;;;;0.30;0.30;;;11.60;52.90;;;;;;20698;6837;118613;-74
2023/04/01 06:24:47;;;;;;;0.80;0.50;;;11.70;53.30;;;;;;20541;6836;282525;-74
2023/04/01 06:27:27;;;;;;;1.17;0.47;;;12.20;50.30;;;;;;20525;6837;307118;-76
2023/04/01 06:30:26;;;;;;;0.83;0.40;;;12.20;50.60;;;;;;20727;6837;118011;-75
2023/04/01 06:32:51;;;;;;;0.43;0.40;;;12.10;51.40;;;;;;20490;6837;307608;-74
2023/04/01 06:35:17;;;;;;;0.80;0.30;;;12.20;50.80;;;;;;20694;6837;121073;-75
2023/04/01 06:37:50;;;;;;;0.83;0.60;;;12.10;50.90;;;;;;20486;6837;308936;-76
2023/04/01 06:40:24;;;;;;;0.87;0.50;;;12.10;50.90;;;;;;20520;6837;307234;-75
2023/04/01 06:43:13;;;;;;;0.70;0.50;;;12.30;50.30;;;;;;19582;7193;129196;-74
2023/04/01 06:45:55;;;;;;;0.65;0.40;;;12.20;51.80;;;;;;19262;7206;311737;-75
2023/04/01 06:48:43;;;;;;;0.70;0.50;;;12.20;50.30;;;;;;20083;6835;312850;-74
2023/04/01 06:51:11;;;;;;;0.52;0.40;;;12.60;49.30;;;;;;20378;6837;307651;-74
2023/04/01 06:53:43;;;;;;;0.60;0.43;;;12.60;49.30;;;;;;20476;6837;342148;-75
2023/04/01 06:56:08;;;;;;;1.00;0.60;;;12.80;49.00;;;;;;20675;6837;118139;-75
2023/04/01 06:58:34;;;;;;;1.10;0.50;;;12.50;49.70;;;;;;20474;6837;312093;-75
2023/04/01 07:01:03;;;;;;;0.70;0.60;;;12.50;49.60;;;;;;20497;6837;317148;-75
2023/04/01 07:03:38;;;;;;;3.10;2.90;;;12.60;49.20;;;;;;20497;6837;310593;-77
2023/04/01 07:06:04;;;;;;;1.53;1.43;;;12.80;49.00;;;;;;20487;6837;278581;-76
2023/04/01 07:08:30;;;;;;;0.60;0.60;;;12.90;48.80;;;;;;20506;6837;308592;-77
2023/04/01 07:11:05;;;;;;;1.90;1.80;;;13.10;48.30;;;;;;20708;6837;117976;-74
2023/04/01 07:13:43;;;;;;;0.80;0.70;;;12.80;49.00;;;;;;20480;6837;337657;-73
2023/04/01 07:16:16;;;;;;;2.50;2.33;;;12.80;48.50;;;;;;20716;6837;117316;-74
2023/04/01 07:19:05;;;;;;;7.87;7.27;;;12.60;49.30;;;;;;20481;6837;304629;-74
2023/04/01 07:21:44;;;;;;;1.97;1.87;;;12.60;49.40;;;;;;20698;6837;123083;-76
2023/04/01 07:24:17;;;;;;;3.83;3.63;;;12.40;49.90;;;;;;20687;6837;117216;-74
2023/04/01 07:26:42;;;;;;;2.60;2.40;;;12.10;50.80;;;;;;20127;6837;328331;-75
2023/04/01 07:29:12;;;;;;;1.25;0.90;;;12.50;49.60;;;;;;20521;6837;308049;-75
2023/04/01 07:31:50;;;;;;;1.57;0.60;;;12.50;49.50;;;;;;20716;6837;117732;-74
2023/04/01 07:34:22;;;;;;;0.80;0.75;;;12.50;50.00;;;;;;19957;6835;337340;-74
2023/04/01 07:37:02;;;;;;;1.03;0.87;;;12.50;50.90;;;;;;20691;6835;127316;-73
2023/04/01 07:39:54;;;;;;;1.23;0.95;;;12.50;50.20;;;;;;20523;6837;277585;-74
2023/04/01 07:42:23;;;;;;;1.65;0.90;;;12.60;50.00;;;;;;20515;6834;336986;-75
2023/04/01 07:45:15;;;;;;;0.70;0.50;;;12.80;49.60;;;;;;20701;6837;117388;-74
2023/04/01 07:48:06;;;;;;;0.83;0.80;;;12.70;50.40;;;;;;20501;6837;278031;-77
2023/04/01 07:50:31;;;;;;;1.50;1.10;;;12.70;49.90;;;;;;20512;6837;308090;-78
2023/04/01 07:53:24;;;;;;;1.13;0.57;;;12.90;49.50;;;;;;20700;6837;117886;-75
2023/04/01 07:55:49;;;;;;;1.30;0.80;;;12.80;49.80;;;;;;20579;6837;117256;-74
2023/04/01 07:58:18;;;;;;;1.35;1.12;;;12.40;50.60;;;;;;20459;6837;308239;-75
2023/04/01 08:01:10;;;;;;;1.47;0.70;;;12.50;50.60;;;;;;20676;6837;117369;-74
2023/04/01 08:03:52;;;;;;;0.87;0.80;;;12.50;51.00;;;;;;20703;6837;124376;-74
2023/04/01 08:06:25;;;;;;;1.50;1.30;;;12.20;51.30;;;;;;20509;6837;308444;-72
2023/04/01 08:08:57;;;;;;;1.70;1.07;;;12.40;50.90;;;;;;20481;6837;308906;-73
2023/04/01 08:11:46;;;;;;;2.00;1.90;;;12.70;50.10;;;;;;20692;6837;117598;-73
2023/04/01 08:14:21;;;;;;;1.00;1.00;;;12.70;50.30;;;;;;20505;6837;308900;-73
2023/04/01 08:16:53;;;;;;;2.07;1.83;;;12.70;49.20;;;;;;20663;6837;117753;-73
2023/04/01 08:19:19;;;;;;;0.73;0.70;;;12.30;50.50;;;;;;20709;6837;118655;-73
2023/04/01 08:21:44;;;;;;;0.90;0.70;;;12.30;50.40;;;;;;20442;6837;306908;-73
2023/04/01 08:24:27;;;;;;;1.63;0.60;;;12.30;50.70;;;;;;20687;6837;117387;-73
2023/04/01 08:26:53;;;;;;;1.47;1.37;;;12.10;51.30;;;;;;20676;6837;120029;-73
2023/04/01 08:29:20;;;;;;;0.80;0.80;;;12.00;51.20;;;;;;20508;6837;281623;-73
2023/04/01 08:31:55;;;;;;;0.63;0.63;;;12.20;50.90;;;;;;20483;6837;281941;-73
2023/04/01 08:34:24;;;;;;;1.93;1.77;;;12.50;51.00;;;;;;20424;6837;122088;-73
2023/04/01 08:36:50;;;;;;;0.60;0.33;;;12.50;51.40;;;;;;20696;6837;117352;-74
2023/04/01 08:39:15;;;;;;;0.80;0.70;;;12.30;51.90;;;;;;20720;6837;119706;-74
2023/04/01 08:55:40;;;;;;;2.13;2.03;;;11.60;53.20;;;;;;21255;6514;89853;-74
2023/04/01 08:58:15;;;;;;;1.73;1.63;;;11.40;53.50;;;;;;20875;6783;117097;-73
2023/04/01 09:00:54;;;;;;;0.83;0.83;;;11.40;53.90;;;;;;20811;6797;147451;-73
2023/04/01 09:03:23;;;;;;;0.70;0.70;;;11.40;54.10;;;;;;20860;6783;116969;-73
2023/04/01 09:06:17;;;;;;;1.53;1.10;;;11.30;54.00;;;;;;20437;6849;277435;-74
2023/04/01 09:08:49;;;;;;;0.60;0.53;;;11.60;53.80;;;;;;20672;6849;117060;-71
2023/04/01 09:11:40;;;;;;;1.70;1.60;;;11.70;53.70;;;;;;20636;6849;119124;-72
2023/04/01 09:14:08;;;;;;;2.23;2.13;;;11.60;53.90;;;;;;19892;6863;315847;-73
2023/04/01 09:17:00;;;;;;;2.70;2.60;;;11.90;53.60;;;;;;20642;6852;121049;-73
2023/04/01 09:19:42;;;;;;;1.70;1.60;;;12.00;53.70;;;;;;20411;6860;341610;-73
2023/04/01 09:22:15;;;;;;;1.95;1.85;;;12.30;53.50;;;;;;20422;6860;341459;-73
2023/04/01 09:25:06;;;;;;;0.80;0.80;;;12.70;52.80;;;;;;20603;6860;117881;-73
2023/04/01 09:27:52;;;;;;;1.40;1.30;;;12.70;52.40;;;;;;20441;6860;309616;-72
2023/04/01 09:30:25;;;;;;;1.50;1.40;;;12.80;51.70;;;;;;20662;6860;122550;-74
2023/04/01 09:33:20;;;;;;;0.83;0.70;;;12.60;51.90;;;;;;20644;6860;117389;-73
2023/04/01 09:36:03;;;;;;;2.03;1.70;;;12.60;53.10;;;;;;20450;6860;278132;-74
2023/04/01 09:38:54;;;;;;;2.25;2.05;;;12.60;53.10;;;;;;20433;6860;295925;-74
2023/04/01 09:41:30;;;;;;;1.00;1.00;;;13.00;52.60;;;;;;20667;6860;117582;-73
2023/04/01 09:44:15;;;;;;;0.47;0.47;;;12.90;52.50;;;;;;20664;6860;117706;-73
2023/04/01 09:47:01;;;;;;;0.80;0.80;;;12.60;53.00;;;;;;20371;6860;315713;-73
2023/04/01 09:49:43;;;;;;;1.15;0.60;;;12.70;52.90;;;;;;20468;6860;321462;-73
2023/04/01 09:52:28;;;;;;;0.77;0.57;;;13.00;52.60;;;;;;20386;6860;280698;-72
2023/04/01 09:55:07;;;;;;;0.47;0.47;;;13.20;52.20;;;;;;20404;6860;303526;-73
2023/04/01 09:57:49;;;;;;;0.52;0.52;;;13.30;51.70;;;;;;20457;6859;278136;-74
2023/04/01 10:00:45;;;;;;;1.00;0.50;;;13.50;52.30;;;;;;20458;6859;307224;-74
2023/04/01 10:03:30;;;;;;;0.70;0.70;;;13.60;51.10;;;;;;20546;6750;279429;-75
2023/04/01 10:06:30;;;;;;;0.40;0.40;;;13.70;51.70;;;;;;20611;6745;311418;-72
2023/04/01 10:09:15;;;;;;;0.80;0.50;;;13.90;51.10;;;;;;20600;6800;334812;-72
2023/04/01 10:11:54;;;;;;;0.40;0.40;;;13.90;50.80;;;;;;20585;6754;304882;-70
2023/04/01 10:14:29;;;;;;;1.35;0.88;;;13.90;50.80;;;;;;20418;6741;307206;-72
2023/04/01 10:17:31;;;;;;;0.30;0.30;;;13.90;50.60;;;;;;20513;6811;117081;-72
2023/04/01 10:20:46;;;;;;;1.23;0.60;;;13.50;51.40;;;;;;20152;6841;283253;-77
2023/04/01 10:23:44;;;;;;;0.60;0.40;;;13.50;51.60;;;;;;20542;6769;283771;-78
2023/04/01 10:26:33;;;;;;;0.88;0.47;;;13.40;51.50;;;;;;20645;6747;305275;-75
2023/04/01 10:29:22;;;;;;;0.30;0.30;;;13.50;51.90;;;;;;19828;7080;119207;-74
2023/04/01 10:32:21;;;;;;;2.67;0.60;;;12.60;53.40;;;;;;20878;6743;121136;-73
2023/04/01 10:35:20;;;;;;;0.40;0.40;;;12.60;53.40;;;;;;20643;6758;117548;-77
2023/04/01 10:38:22;;;;;;;0.52;0.52;;;12.40;54.70;;;;;;20611;6758;309832;-76
2023/04/01 10:41:09;;;;;;;0.47;0.47;;;12.40;54.70;;;;;;20585;6758;309992;-76
2023/04/01 10:44:23;;;;;;;1.10;0.43;;;12.80;54.10;;;;;;20835;6732;117328;-76
2023/04/01 10:47:22;;;;;;;1.13;0.50;;;12.60;54.00;;;;;;20920;6723;119663;-74
2023/04/01 10:50:25;;;;;;;0.90;0.50;;;12.30;55.20;;;;;;20687;6723;307228;-78
2023/04/01 10:53:10;;;;;;;0.30;0.30;;;12.50;55.70;;;;;;20787;6743;116701;-75
2023/04/01 10:55:50;;;;;;;0.60;0.43;;;12.50;55.70;;;;;;20870;6743;116737;-73
2023/04/01 10:58:37;;;;;;;1.30;0.40;;;12.40;55.90;;;;;;20597;6758;335420;-75
2023/04/01 11:01:21;;;;;;;0.40;0.40;;;12.60;55.70;;;;;;20867;6743;117009;-76
2023/04/01 11:04:27;;;;;;;0.60;0.40;;;13.00;54.50;;;;;;20567;6740;306627;-73
2023/04/01 11:07:09;;;;;;;1.00;0.90;;;13.00;54.50;;;;;;20879;6740;119118;-76
2023/04/01 11:10:05;;;;;;;0.80;0.80;;;13.00;54.70;;;;;;20564;6762;306945;-75
2023/04/01 11:13:14;;;;;;;7.80;7.13;;;13.20;54.20;;;;;;20646;6741;276442;-76
2023/04/01 11:16:09;;;;;;;2.20;2.10;;;13.50;53.90;;;;;;20797;6757;116957;-73
2023/04/01 11:18:51;;;;;;;4.27;4.07;;;13.40;53.30;;;;;;20657;6752;308870;-76
2023/04/01 11:21:48;;;;;;;2.37;2.27;;;13.40;53.20;;;;;;20682;6737;277591;-75
2023/04/01 11:24:55;;;;;;;1.07;0.97;;;13.60;54.20;;;;;;19676;7107;120630;-74
2023/04/01 11:27:58;;;;;;;0.65;0.65;;;13.70;53.30;;;;;;19623;7082;318619;-77
2023/04/01 11:30:44;;;;;;;1.13;1.13;;;13.70;53.20;;;;;;20222;6811;310386;-74
2023/04/01 11:33:28;;;;;;;0.70;0.70;;;14.00;52.10;;;;;;20607;6752;308004;-75
2023/04/01 11:36:11;;;;;;;2.00;1.90;;;14.20;51.20;;;;;;20593;6765;306692;-76
2023/04/01 11:39:13;;;;;;;1.73;1.63;;;14.30;51.20;;;;;;20826;6758;117960;-76
2023/04/01 11:41:57;;;;;;;0.80;0.77;;;13.60;52.50;;;;;;20806;6765;116989;-75
2023/04/01 11:44:35;;;;;;;0.80;0.70;;;13.50;51.80;;;;;;20496;6747;302775;-75
2023/04/01 11:47:15;;;;;;;0.90;0.40;;;13.60;52.20;;;;;;20661;6744;275613;-76
2023/04/01 11:50:07;;;;;;;0.40;0.40;;;13.80;51.80;;;;;;20866;6743;116891;-76
2023/04/01 11:53:03;;;;;;;0.73;0.57;;;13.70;51.40;;;;;;20602;6754;306141;-77
2023/04/01 11:56:02;;;;;;;0.40;0.40;;;13.70;51.40;;;;;;20743;6784;117160;-74
2023/04/01 11:59:00;;;;;;;0.47;0.47;;;13.60;52.00;;;;;;20710;6784;117383;-77
2023/04/01 12:01:37;;;;;;;0.90;0.90;;;13.40;52.70;;;;;;20799;6810;117076;-79
2023/04/01 12:04:21;;;;;;;2.23;0.53;;;13.20;53.00;;;;;;20702;6767;117143;-75
2023/04/01 12:07:14;;;;;;;0.40;0.40;;;13.40;52.90;;;;;;20607;6754;305848;-73
2023/04/01 12:09:56;;;;;;;0.80;0.80;;;13.40;52.20;;;;;;20611;6754;306580;-76
2023/04/01 12:12:51;;;;;;;1.17;0.67;;;13.80;51.20;;;;;;20841;6754;118031;-75
2023/04/01 12:15:54;;;;;;;0.50;0.50;;;13.80;51.00;;;;;;20455;6810;279663;-75
2023/04/01 12:18:50;;;;;;;0.30;0.30;;;13.60;50.00;;;;;;20872;6739;119817;-75
2023/04/01 12:21:43;;;;;;;1.20;0.50;;;13.60;50.10;;;;;;20619;6754;305864;-77
2023/04/01 12:24:43;;;;;;;0.50;0.50;;;14.00;50.60;;;;;;20509;6754;309310;-74
2023/04/01 12:27:19;;;;;;;0.33;0.33;;;13.90;50.50;;;;;;20811;6754;117513;-77
2023/04/01 12:30:05;;;;;;;1.57;0.50;;;13.80;51.00;;;;;;20872;6743;117238;-77
2023/04/01 12:32:49;;;;;;;1.20;0.60;;;13.60;51.40;;;;;;20818;6753;116877;-83
2023/04/01 12:35:32;;;;;;;0.40;0.40;;;13.40;51.90;;;;;;20378;6835;313125;-76
2023/04/01 12:38:10;;;;;;;0.40;0.40;;;13.60;51.60;;;;;;20579;6771;310041;-78
2023/04/01 12:40:46;;;;;;;0.57;0.40;;;13.90;51.20;;;;;;20753;6774;116929;-75
2023/04/01 12:43:45;;;;;;;0.40;0.40;;;13.90;50.10;;;;;;20578;6759;283847;-74
2023/04/01 12:47:01;;;;;;;0.30;0.30;;;13.90;50.10;;;;;;20866;6743;117691;-76
2023/04/01 12:50:00;;;;;;;0.30;0.30;;;13.90;50.40;;;;;;20658;6743;305915;-76
2023/04/01 12:52:39;;;;;;;0.10;0.10;;;13.90;50.30;;;;;;20871;6737;118225;-76
2023/04/01 12:55:37;;;;;;;0.20;0.20;;;13.80;50.60;;;;;;20644;6762;117566;-74
2023/04/01 12:58:43;;;;;;;0.22;0.20;;;13.60;51.00;;;;;;20638;6746;276523;-75
2023/04/01 13:01:42;;;;;;;0.30;0.30;;;13.80;49.40;;;;;;21322;6515;71819;-72
2023/04/01 13:04:15;;;;;;;0.20;0.20;;;13.50;50.40;;;;;;20770;6802;116875;-75
2023/04/01 13:06:53;;;;;;;0.43;0.37;;;13.50;50.40;;;;;;20673;6847;117773;-74
2023/04/01 13:09:32;;;;;;;0.30;0.30;;;13.30;50.60;;;;;;20698;6847;117457;-74
2023/04/01 13:12:23;;;;;;;0.20;0.20;;;13.20;51.40;;;;;;20691;6847;117450;-75
2023/04/01 13:15:09;;;;;;;0.23;0.20;;;13.10;51.60;;;;;;20683;6847;117770;-75
2023/04/01 13:17:39;;;;;;;0.30;0.20;;;13.50;50.60;;;;;;20481;6853;308572;-74
2023/04/01 13:20:14;;;;;;;0.60;0.10;;;13.50;50.60;;;;;;20406;6868;304043;-77
2023/04/01 13:23:10;;;;;;;0.20;0.20;;;14.20;48.80;;;;;;20421;6851;313054;-78
2023/04/01 13:26:03;;;;;;;0.27;0.27;;;14.20;48.80;;;;;;20676;6851;117276;-76
2023/04/01 13:28:32;;;;;;;0.60;0.60;;;14.10;50.70;;;;;;19609;7197;119789;-76
2023/04/01 13:31:11;;;;;;;0.20;0.20;;;14.10;50.70;;;;;;20221;6848;119983;-76
2023/04/01 13:33:56;;;;;;;0.20;0.20;;;14.00;50.90;;;;;;20451;6845;117409;-76